createdAt,value
2023-02-15T00:01:39.084Z,100.00
2023-02-15T00:04:10.518Z,100.00
2023-02-15T00:06:40.198Z,100.00
2023-02-15T00:09:12.375Z,100.00
2023-02-15T00:11:45.039Z,100.00
2023-02-15T00:14:21.327Z,100.00
2023-02-15T00:16:54.267Z,100.00
2023-02-15T00:19:24.111Z,100.00
2023-02-15T00:21:53.834Z,100.00
2023-02-15T00:24:23.654Z,100.00
2023-02-15T00:26:53.418Z,100.00
2023-02-15T00:29:23.508Z,100.00
2023-02-15T00:31:53.631Z,100.00
2023-02-15T00:34:28.220Z,100.00
2023-02-15T00:36:58.283Z,100.00
2023-02-15T00:39:28.426Z,100.00
2023-02-15T00:41:58.066Z,100.00
2023-02-15T00:44:27.700Z,100.00
2023-02-15T00:46:57.375Z,100.00
2023-02-15T00:49:27.130Z,100.00
2023-02-15T00:51:56.865Z,100.00
2023-02-15T00:54:26.598Z,100.00
2023-02-15T00:56:56.336Z,100.00
2023-02-15T00:59:25.983Z,100.00
2023-02-15T01:01:55.641Z,100.00
2023-02-15T01:04:25.369Z,100.00
2023-02-15T01:06:54.999Z,100.00
2023-02-15T01:09:24.674Z,100.00
2023-02-15T01:11:54.448Z,100.00
2023-02-15T01:14:24.403Z,100.00
2023-02-15T01:16:54.100Z,100.00
2023-02-15T01:19:23.755Z,100.00
2023-02-15T01:21:53.393Z,100.00
2023-02-15T01:24:23.062Z,100.00
2023-02-15T01:26:52.751Z,100.00
2023-02-15T01:29:22.548Z,100.00
2023-02-15T01:31:52.545Z,100.00
2023-02-15T01:34:22.193Z,100.00
2023-02-15T01:36:51.845Z,100.00
2023-02-15T01:39:21.514Z,100.00
2023-02-15T01:41:52.200Z,100.00
2023-02-15T01:44:49.828Z,100.00
2023-02-15T01:47:54.393Z,100.00
2023-02-15T01:50:43.208Z,100.00
2023-02-15T01:53:27.152Z,100.00
2023-02-15T01:56:26.266Z,100.00
2023-02-15T01:58:59.725Z,100.00
2023-02-15T02:01:29.964Z,100.00
2023-02-15T02:04:39.977Z,100.00
2023-02-15T02:07:11.649Z,100.00
2023-02-15T02:09:41.578Z,100.00
2023-02-15T02:12:11.888Z,100.00
2023-02-15T02:14:42.918Z,100.00
2023-02-15T02:17:40.623Z,100.00
2023-02-15T02:20:46.385Z,100.00
2023-02-15T02:23:34.534Z,100.00
2023-02-15T02:26:58.413Z,100.00
2023-02-15T02:30:27.075Z,100.00
2023-02-15T02:33:29.896Z,100.00
2023-02-15T02:36:21.608Z,100.00
2023-02-15T02:39:05.926Z,100.00
2023-02-15T02:42:09.657Z,100.00
2023-02-15T02:44:55.344Z,100.00
2023-02-15T02:47:40.047Z,100.00
2023-02-15T02:50:22.893Z,100.00
2023-02-15T02:52:57.027Z,100.00
2023-02-15T02:55:50.158Z,100.00
2023-02-15T02:58:43.922Z,100.00
2023-02-15T03:01:29.405Z,100.00
2023-02-15T03:04:11.570Z,100.00
2023-02-15T03:06:58.813Z,100.00
2023-02-15T03:09:45.636Z,100.00
2023-02-15T03:12:34.190Z,100.00
2023-02-15T03:15:06.801Z,100.00
2023-02-15T03:17:44.059Z,100.00
2023-02-15T03:20:32.994Z,100.00
2023-02-15T03:23:15.136Z,100.00
2023-02-15T03:26:02.423Z,100.00
2023-02-15T03:28:46.641Z,100.00
2023-02-15T03:31:19.168Z,100.00
2023-02-15T03:34:01.274Z,100.00
2023-02-15T03:36:52.005Z,100.00
2023-02-15T03:39:45.974Z,100.00
2023-02-15T03:42:33.319Z,100.00
2023-02-15T03:45:16.823Z,100.00
2023-02-15T03:47:52.037Z,100.00
2023-02-15T03:50:57.652Z,100.00
2023-02-15T03:53:28.367Z,100.00
2023-02-15T03:55:58.098Z,100.00
2023-02-15T03:58:46.284Z,100.00
2023-02-15T04:01:52.045Z,100.00
2023-02-15T04:04:28.104Z,100.00
2023-02-15T04:06:58.027Z,100.00
2023-02-15T04:09:45.917Z,100.00
2023-02-15T04:12:15.629Z,100.00
2023-02-15T04:15:04.013Z,100.00
2023-02-15T04:17:33.742Z,100.00
2023-02-15T04:20:21.866Z,100.00
2023-02-15T04:23:09.673Z,100.00
2023-02-15T04:25:39.295Z,100.00
2023-02-15T04:28:09.215Z,100.00
2023-02-15T04:30:38.849Z,100.00
2023-02-15T04:33:08.403Z,100.00
2023-02-15T04:35:38.003Z,100.00
2023-02-15T04:38:07.685Z,100.00
2023-02-15T04:40:37.282Z,100.00
2023-02-15T04:43:06.861Z,100.00
2023-02-15T04:45:36.571Z,100.00
2023-02-15T04:48:06.237Z,100.00
2023-02-15T04:50:35.844Z,100.00
2023-02-15T04:53:05.449Z,100.00
2023-02-15T04:55:35.152Z,100.00
2023-02-15T04:58:04.820Z,100.00
2023-02-15T05:00:34.583Z,100.00
2023-02-15T05:03:04.581Z,100.00
2023-02-15T05:05:34.134Z,100.00
2023-02-15T05:08:03.827Z,100.00
2023-02-15T05:10:33.439Z,100.00
2023-02-15T05:13:03.022Z,100.00
2023-02-15T05:15:32.777Z,100.00
2023-02-15T05:18:02.658Z,100.00
2023-02-15T05:20:32.305Z,100.00
2023-02-15T05:23:01.953Z,100.00
2023-02-15T05:25:49.910Z,100.00
2023-02-15T05:28:22.540Z,100.00
2023-02-15T05:31:05.937Z,100.00
2023-02-15T05:33:36.265Z,100.00
2023-02-15T05:36:08.014Z,100.00
2023-02-15T05:38:38.931Z,100.00
2023-02-15T05:41:11.913Z,100.00
2023-02-15T05:43:41.785Z,100.00
2023-02-15T05:46:12.356Z,100.00
2023-02-15T05:48:42.073Z,100.00
2023-02-15T05:51:15.096Z,100.00
2023-02-15T05:53:44.860Z,100.00
2023-02-15T05:56:14.664Z,100.00
2023-02-15T05:58:44.524Z,100.00
2023-02-15T06:01:18.688Z,100.00
2023-02-15T06:03:48.436Z,100.00
2023-02-15T06:06:18.382Z,100.00
2023-02-15T06:08:48.059Z,100.00
2023-02-15T06:11:17.789Z,100.00
2023-02-15T06:13:47.519Z,100.00
2023-02-15T06:16:17.338Z,100.00
2023-02-15T06:18:47.092Z,100.00
2023-02-15T06:21:16.865Z,100.00
2023-02-15T06:23:45.828Z,100.00
2023-02-15T06:26:15.475Z,100.00
2023-02-15T06:28:45.180Z,100.00
2023-02-15T06:31:14.898Z,91.68
2023-02-15T06:33:44.614Z,84.11
2023-02-15T06:36:14.309Z,80.98
2023-02-15T06:38:44.798Z,82.10
2023-02-15T06:41:14.466Z,82.39
2023-02-15T06:43:44.233Z,81.95
2023-02-15T06:46:13.953Z,78.42
2023-02-15T06:48:44.683Z,82.07
2023-02-15T06:51:15.272Z,78.37
2023-02-15T06:53:45.041Z,78.19
2023-02-15T06:56:14.748Z,76.71
2023-02-15T06:58:46.941Z,75.05
2023-02-15T07:01:17.036Z,72.46
2023-02-15T07:03:46.824Z,70.63
2023-02-15T07:06:16.503Z,66.33
2023-02-15T07:08:46.193Z,64.82
2023-02-15T07:11:34.290Z,65.51
2023-02-15T07:14:03.816Z,62.79
2023-02-15T07:16:31.628Z,61.77
2023-02-15T07:19:01.259Z,61.61
2023-02-15T07:21:29.175Z,53.92
2023-02-15T07:23:59.959Z,60.26
2023-02-15T07:26:29.930Z,61.05
2023-02-15T07:28:59.559Z,61.62
2023-02-15T07:31:29.593Z,63.18
2023-02-15T07:33:59.155Z,59.87
2023-02-15T07:36:28.840Z,58.05
2023-02-15T07:38:58.428Z,61.61
2023-02-15T07:41:27.016Z,78.88
2023-02-15T07:43:56.628Z,84.68
2023-02-15T07:46:26.233Z,85.16
2023-02-15T07:48:56.867Z,85.34
2023-02-15T07:51:27.301Z,85.62
2023-02-15T07:53:57.120Z,86.20
2023-02-15T07:56:26.825Z,86.81
2023-02-15T07:58:56.911Z,87.02
2023-02-15T08:01:39.479Z,87.27
2023-02-15T08:04:12.063Z,87.50
2023-02-15T08:06:41.770Z,87.86
2023-02-15T08:09:16.166Z,87.53
2023-02-15T08:11:44.053Z,88.21
2023-02-15T08:14:18.737Z,87.25
2023-02-15T08:17:00.878Z,85.28
2023-02-15T08:19:33.693Z,84.67
2023-02-15T08:22:08.012Z,84.13
2023-02-15T08:24:38.999Z,85.12
2023-02-15T08:27:12.087Z,83.31
2023-02-15T08:29:43.366Z,84.78
2023-02-15T08:32:14.954Z,84.14
2023-02-15T08:34:44.679Z,83.03
2023-02-15T08:37:14.273Z,84.64
2023-02-15T08:39:44.562Z,85.61
2023-02-15T08:42:14.804Z,85.14
2023-02-15T08:44:44.310Z,84.43
2023-02-15T08:47:14.114Z,84.31
2023-02-15T08:49:42.821Z,84.30
2023-02-15T08:52:12.368Z,82.88
2023-02-15T08:54:41.882Z,81.96
2023-02-15T08:57:11.484Z,83.50
2023-02-15T08:59:40.951Z,82.29
2023-02-15T09:02:12.409Z,80.62
2023-02-15T09:04:42.007Z,80.68
2023-02-15T09:07:11.416Z,80.22
2023-02-15T09:09:40.892Z,80.22
2023-02-15T09:12:10.412Z,80.21
2023-02-15T09:14:39.878Z,81.52
2023-02-15T09:17:09.360Z,82.74
2023-02-15T09:19:38.840Z,82.11
2023-02-15T09:22:08.303Z,82.34
2023-02-15T09:24:37.087Z,81.80
2023-02-15T09:27:06.831Z,79.55
2023-02-15T09:29:35.636Z,79.50
2023-02-15T09:32:05.274Z,79.30
2023-02-15T09:34:35.169Z,78.17
2023-02-15T09:37:07.645Z,78.79
2023-02-15T09:39:44.094Z,78.04
2023-02-15T09:43:09.126Z,78.17
2023-02-15T09:46:40.359Z,77.24
2023-02-15T09:50:15.300Z,78.63
2023-02-15T09:53:19.589Z,77.48
2023-02-15T09:56:46.792Z,78.76
2023-02-15T09:59:36.565Z,78.13
2023-02-15T10:03:12.972Z,78.06
2023-02-15T10:06:32.434Z,77.82
2023-02-15T10:09:31.651Z,77.57
2023-02-15T10:12:56.003Z,73.89
2023-02-15T10:15:54.938Z,73.40
2023-02-15T10:19:06.432Z,73.46
2023-02-15T10:21:47.818Z,73.82
2023-02-15T10:24:26.156Z,74.74
2023-02-15T10:27:16.637Z,73.58
2023-02-15T10:29:57.381Z,72.88
2023-02-15T10:32:30.335Z,71.66
2023-02-15T10:35:15.341Z,73.92
2023-02-15T10:38:26.950Z,72.38
2023-02-15T10:41:09.717Z,73.77
2023-02-15T10:44:44.635Z,71.35
2023-02-15T10:47:49.759Z,71.42
2023-02-15T10:50:57.376Z,71.53
2023-02-15T10:54:09.201Z,71.52
2023-02-15T10:56:54.950Z,69.81
2023-02-15T10:59:50.360Z,69.19
2023-02-15T11:03:18.830Z,69.91
2023-02-15T11:06:14.616Z,69.00
2023-02-15T11:08:52.065Z,68.47
2023-02-15T11:11:36.183Z,69.43
2023-02-15T11:14:19.213Z,70.29
2023-02-15T11:16:54.282Z,71.03
2023-02-15T11:19:33.569Z,69.84
2023-02-15T11:22:07.621Z,70.29
2023-02-15T11:24:47.532Z,71.01
2023-02-15T11:27:34.304Z,69.32
2023-02-15T11:30:16.725Z,69.08
2023-02-15T11:32:52.614Z,68.97
2023-02-15T11:35:38.488Z,69.97
2023-02-15T11:38:21.687Z,69.44
2023-02-15T11:41:25.418Z,68.71
2023-02-15T11:44:08.038Z,70.18
2023-02-15T11:46:38.884Z,68.32
2023-02-15T11:49:38.923Z,67.60
2023-02-15T11:52:15.653Z,68.62
2023-02-15T11:54:51.559Z,69.59
2023-02-15T11:57:39.144Z,68.39
2023-02-15T12:00:37.290Z,68.82
2023-02-15T12:03:24.550Z,67.56
2023-02-15T12:06:03.821Z,67.90
2023-02-15T12:08:43.460Z,66.99
2023-02-15T12:11:39.498Z,67.08
2023-02-15T12:14:16.941Z,66.46
2023-02-15T12:16:57.033Z,66.43
2023-02-15T12:19:39.117Z,66.46
2023-02-15T12:22:26.334Z,66.93
2023-02-15T12:25:01.865Z,65.54
2023-02-15T12:27:34.605Z,64.80
2023-02-15T12:30:36.534Z,64.09
2023-02-15T12:33:46.623Z,64.90
2023-02-15T12:36:29.090Z,65.28
2023-02-15T12:39:13.598Z,65.78
2023-02-15T12:42:01.145Z,65.62
2023-02-15T12:44:38.256Z,65.45
2023-02-15T12:47:21.238Z,66.77
2023-02-15T12:50:19.148Z,66.49
2023-02-15T12:52:52.446Z,66.49
2023-02-15T12:55:32.273Z,66.09
2023-02-15T12:58:26.396Z,66.29
2023-02-15T13:01:22.396Z,65.54
2023-02-15T13:04:05.861Z,65.62
2023-02-15T13:06:37.652Z,64.17
2023-02-15T13:09:21.178Z,63.62
2023-02-15T13:11:51.214Z,64.21
2023-02-15T13:14:32.349Z,63.39
2023-02-15T13:17:07.761Z,64.10
2023-02-15T13:19:51.381Z,63.12
2023-02-15T13:22:43.293Z,63.02
2023-02-15T13:25:24.863Z,63.38
2023-02-15T13:28:03.043Z,64.33
2023-02-15T13:30:38.316Z,64.03
2023-02-15T13:33:31.900Z,63.50
2023-02-15T13:37:07.242Z,63.74
2023-02-15T13:39:47.403Z,63.24
2023-02-15T13:42:31.809Z,62.23
2023-02-15T13:46:02.979Z,62.23
2023-02-15T13:48:48.796Z,62.71
2023-02-15T13:51:41.828Z,63.86
2023-02-15T13:54:59.197Z,62.90
2023-02-15T13:57:52.580Z,62.70
2023-02-15T14:00:56.595Z,63.13
2023-02-15T14:03:57.872Z,64.35
2023-02-15T14:06:40.319Z,64.72
2023-02-15T14:10:04.539Z,64.24
2023-02-15T14:13:18.674Z,64.94
2023-02-15T14:16:38.708Z,65.32
2023-02-15T14:19:50.859Z,64.21
2023-02-15T14:22:44.414Z,64.38
2023-02-15T14:26:24.336Z,64.80
2023-02-15T14:29:24.398Z,63.76
2023-02-15T14:32:46.359Z,63.25
2023-02-15T14:35:29.997Z,63.71
2023-02-15T14:38:23.882Z,64.39
2023-02-15T14:41:08.742Z,64.10
2023-02-15T14:44:34.373Z,64.26
2023-02-15T14:47:23.733Z,64.06
2023-02-15T14:49:53.215Z,65.47
2023-02-15T14:52:22.795Z,67.66
2023-02-15T14:54:56.256Z,65.62
2023-02-15T14:57:28.792Z,64.46
2023-02-15T15:00:08.266Z,65.16
2023-02-15T15:02:51.142Z,65.44
2023-02-15T15:05:35.170Z,65.44
2023-02-15T15:08:06.967Z,65.22
2023-02-15T15:10:48.333Z,64.88
2023-02-15T15:13:32.821Z,66.22
2023-02-15T15:16:39.481Z,65.66
2023-02-15T15:19:53.715Z,65.84
2023-02-15T15:22:30.983Z,66.44
2023-02-15T15:25:13.194Z,66.13
2023-02-15T15:27:47.025Z,66.49
2023-02-15T15:30:19.328Z,66.83
2023-02-15T15:34:24.458Z,67.49
2023-02-15T15:37:29.537Z,68.80
2023-02-15T15:40:28.757Z,70.33
2023-02-15T15:43:37.501Z,71.31
2023-02-15T15:46:49.611Z,71.52
2023-02-15T15:49:23.227Z,72.17
2023-02-15T15:51:53.091Z,72.30
2023-02-15T15:54:25.854Z,73.96
2023-02-15T15:57:03.585Z,74.81
2023-02-15T15:59:36.230Z,75.26
2023-02-15T16:02:11.302Z,75.74
2023-02-15T16:04:40.712Z,76.71
2023-02-15T16:07:18.783Z,76.56
2023-02-15T16:10:08.204Z,76.78
2023-02-15T16:12:40.941Z,77.41
2023-02-15T16:15:45.781Z,77.68
2023-02-15T16:18:25.294Z,78.01
2023-02-15T16:21:01.949Z,78.59
2023-02-15T16:23:37.523Z,79.23
2023-02-15T16:26:28.298Z,79.59
2023-02-15T16:28:57.918Z,80.35
2023-02-15T16:31:27.668Z,81.47
2023-02-15T16:33:57.403Z,81.04
2023-02-15T16:36:29.922Z,80.85
2023-02-15T16:39:00.354Z,82.51
2023-02-15T16:41:31.886Z,82.12
2023-02-15T16:44:17.822Z,82.01
2023-02-15T16:46:55.028Z,83.40
2023-02-15T16:49:29.914Z,83.59
2023-02-15T16:52:09.664Z,83.64
2023-02-15T16:54:44.654Z,83.59
2023-02-15T16:57:30.911Z,85.31
2023-02-15T17:00:18.487Z,85.30
2023-02-15T17:03:25.337Z,85.38
2023-02-15T17:06:00.585Z,85.97
2023-02-15T17:08:38.155Z,85.84
2023-02-15T17:11:42.696Z,85.98
2023-02-15T17:14:19.096Z,86.38
2023-02-15T17:17:13.813Z,86.78
2023-02-15T17:19:55.328Z,87.44
2023-02-15T17:22:31.952Z,87.48
2023-02-15T17:25:06.591Z,87.47
2023-02-15T17:27:39.679Z,87.28
2023-02-15T17:30:33.778Z,87.43
2023-02-15T17:33:06.199Z,88.03
2023-02-15T17:35:35.344Z,88.33
2023-02-15T17:38:21.354Z,88.44
2023-02-15T17:40:51.006Z,88.81
2023-02-15T17:43:21.830Z,88.67
2023-02-15T17:45:53.592Z,89.70
2023-02-15T17:48:35.600Z,89.74
2023-02-15T17:51:12.623Z,89.84
2023-02-15T17:54:07.083Z,90.53
2023-02-15T17:56:39.820Z,91.30
2023-02-15T17:59:12.625Z,91.36
2023-02-15T18:02:09.434Z,91.64
2023-02-15T18:04:57.233Z,91.99
2023-02-15T18:07:46.437Z,92.54
2023-02-15T18:10:38.965Z,92.94
2023-02-15T18:13:08.869Z,92.78
2023-02-15T18:15:37.546Z,92.76
2023-02-15T18:18:13.285Z,92.89
2023-02-15T18:20:45.996Z,93.22
2023-02-15T18:23:20.365Z,93.99
2023-02-15T18:25:51.953Z,95.73
2023-02-15T18:28:23.826Z,96.35
2023-02-15T18:30:54.583Z,96.04
2023-02-15T18:33:41.491Z,96.22
2023-02-15T18:36:32.924Z,96.72
2023-02-15T18:39:08.922Z,97.34
2023-02-15T18:41:40.200Z,96.72
2023-02-15T18:44:13.349Z,96.69
2023-02-15T18:46:44.365Z,97.17
2023-02-15T18:49:15.183Z,98.22
2023-02-15T18:51:46.015Z,98.60
2023-02-15T18:54:26.128Z,99.12
2023-02-15T18:57:02.860Z,100.00
2023-02-15T18:59:36.039Z,100.00
2023-02-15T19:02:19.919Z,100.00
2023-02-15T19:04:50.903Z,99.30
2023-02-15T19:07:26.924Z,99.26
2023-02-15T19:09:59.964Z,99.20
2023-02-15T19:12:29.835Z,100.00
2023-02-15T19:14:59.861Z,100.00
2023-02-15T19:17:29.542Z,100.00
2023-02-15T19:20:00.040Z,100.00
2023-02-15T19:22:31.480Z,100.00
2023-02-15T19:25:08.113Z,100.00
2023-02-15T19:27:39.024Z,100.00
2023-02-15T19:30:30.120Z,100.00
2023-02-15T19:33:02.281Z,100.00
2023-02-15T19:35:35.919Z,100.00
2023-02-15T19:38:16.196Z,100.00
2023-02-15T19:40:48.670Z,100.00
2023-02-15T19:43:27.867Z,100.00
2023-02-15T19:45:57.478Z,100.00
2023-02-15T19:48:27.306Z,100.00
2023-02-15T19:50:57.257Z,100.00
2023-02-15T19:53:29.670Z,100.00
2023-02-15T19:56:01.050Z,99.69
2023-02-15T19:58:31.480Z,100.00
2023-02-15T20:01:03.302Z,100.00
2023-02-15T20:03:34.274Z,100.00
2023-02-15T20:06:03.067Z,100.00
2023-02-15T20:08:33.925Z,100.00
2023-02-15T20:11:09.680Z,100.00
2023-02-15T20:13:37.522Z,100.00
2023-02-15T20:16:09.894Z,100.00
2023-02-15T20:18:44.686Z,100.00
2023-02-15T20:21:17.267Z,100.00
2023-02-15T20:23:48.060Z,100.00
2023-02-15T20:26:19.893Z,100.00
2023-02-15T20:28:50.520Z,100.00
2023-02-15T20:31:21.989Z,100.00
2023-02-15T20:33:53.177Z,100.00
2023-02-15T20:36:24.825Z,100.00
2023-02-15T20:38:57.397Z,100.00
2023-02-15T20:41:37.649Z,100.00
2023-02-15T20:44:29.254Z,100.00
2023-02-15T20:47:01.647Z,100.00
2023-02-15T20:49:32.221Z,100.00
2023-02-15T20:52:03.906Z,100.00
2023-02-15T20:54:36.811Z,100.00
2023-02-15T20:57:12.058Z,100.00
2023-02-15T20:59:42.608Z,100.00
2023-02-15T21:02:23.990Z,100.00
2023-02-15T21:04:55.590Z,100.00
2023-02-15T21:07:26.218Z,100.00
2023-02-15T21:09:56.774Z,100.00
2023-02-15T21:12:27.477Z,100.00
2023-02-15T21:14:58.343Z,100.00
2023-02-15T21:17:28.874Z,100.00
2023-02-15T21:19:58.584Z,100.00
2023-02-15T21:22:29.244Z,100.00
2023-02-15T21:24:58.973Z,100.00
2023-02-15T21:27:30.084Z,100.00
2023-02-15T21:30:01.180Z,100.00
2023-02-15T21:32:31.848Z,100.00
2023-02-15T21:35:02.478Z,100.00
2023-02-15T21:37:36.438Z,100.00
2023-02-15T21:40:28.401Z,100.00
2023-02-15T21:43:18.353Z,100.00
2023-02-15T21:46:06.957Z,100.00
2023-02-15T21:48:37.500Z,100.00
2023-02-15T21:51:25.758Z,100.00
2023-02-15T21:53:56.301Z,100.00
2023-02-15T21:56:24.518Z,100.00
2023-02-15T21:58:55.056Z,100.00
2023-02-15T22:01:28.128Z,100.00
2023-02-15T22:03:59.902Z,100.00
2023-02-15T22:06:30.415Z,100.00
2023-02-15T22:09:00.934Z,100.00
2023-02-15T22:11:32.157Z,100.00
2023-02-15T22:14:02.672Z,100.00
2023-02-15T22:16:33.392Z,100.00
2023-02-15T22:19:01.261Z,100.00
2023-02-15T22:21:31.887Z,100.00
2023-02-15T22:24:02.516Z,100.00
2023-02-15T22:26:32.354Z,100.00
2023-02-15T22:29:02.930Z,100.00
2023-02-15T22:31:33.563Z,100.00
2023-02-15T22:34:04.146Z,100.00
2023-02-15T22:36:34.954Z,100.00
2023-02-15T22:39:04.774Z,100.00
2023-02-15T22:41:35.343Z,100.00
2023-02-15T22:44:05.159Z,100.00
2023-02-15T22:46:35.977Z,100.00
2023-02-15T22:49:06.572Z,100.00
2023-02-15T22:51:37.032Z,100.00
2023-02-15T22:54:08.538Z,100.00
2023-02-15T22:56:52.391Z,100.00
2023-02-15T22:59:34.225Z,100.00
2023-02-15T23:02:06.569Z,100.00
2023-02-15T23:04:37.039Z,100.00
2023-02-15T23:07:21.617Z,100.00
2023-02-15T23:09:52.071Z,100.00
2023-02-15T23:12:49.827Z,100.00
2023-02-15T23:15:20.378Z,100.00
2023-02-15T23:17:50.903Z,100.00
2023-02-15T23:20:20.494Z,100.00
2023-02-15T23:22:50.049Z,100.00
2023-02-15T23:25:24.534Z,100.00
2023-02-15T23:27:57.140Z,100.00
2023-02-15T23:30:28.023Z,100.00
2023-02-15T23:32:58.916Z,100.00
2023-02-15T23:35:28.635Z,100.00
2023-02-15T23:37:59.171Z,100.00
2023-02-15T23:40:47.555Z,100.00
2023-02-15T23:43:22.838Z,100.00
2023-02-15T23:45:52.540Z,100.00
2023-02-15T23:48:39.410Z,100.00
2023-02-15T23:51:11.542Z,100.00
2023-02-15T23:53:41.235Z,100.00
2023-02-15T23:56:15.505Z,100.00
2023-02-15T23:58:46.814Z,100.00
